Time;durP1;ratioP1;P1;durP2;ratioP2;P2;SDS_P1;SDS_P2;PMS_P1;PMS_P2;Temp;Humidity;BMP_temperature;BMP_pressure;BME280_temperature;BME280_humidity;BME280_pressure;Samples;Min_cycle;Max_cycle;Signal;HPM_P1;HPM_P2
2022/06/22 00:05:37;;;;;;;;;;;20.90;54.50;;;;;;20882787;28;19924;-71
2022/06/22 00:15:46;;;;;;;;;;;20.90;54.60;;;;;;20880773;28;19920;-71
2022/06/22 00:25:46;;;;;;;;;;;20.90;54.60;;;;;;20881788;28;20272;-71
2022/06/22 00:35:51;;;;;;;;;;;20.80;54.60;;;;;;20866397;28;19916;-71
2022/06/22 00:45:52;;;;;;;;;;;20.80;54.60;;;;;;20895928;28;19925;-71
2022/06/22 00:55:53;;;;;;;;;;;20.80;54.60;;;;;;20895517;28;20374;-73
2022/06/22 01:05:58;;;;;;;;;;;20.70;54.60;;;;;;20861508;28;19928;-72
2022/06/22 01:16:03;;;;;;;;;;;20.80;54.70;;;;;;20852329;28;19975;-71
2022/06/22 01:26:05;;;;;;;;;;;20.80;54.80;;;;;;20876675;28;19924;-72
2022/06/22 01:36:15;;;;;;;;;;;20.80;54.80;;;;;;20875648;28;20363;-71
2022/06/22 01:46:19;;;;;;;;;;;20.70;54.80;;;;;;20875553;28;19927;-76
2022/06/22 01:56:26;;;;;;;;;;;20.80;54.90;;;;;;20891747;28;19912;-71
2022/06/22 02:17:07;;;;;;;;;;;20.70;54.90;;;;;;20883643;28;19925;-71
2022/06/22 02:27:07;;;;;;;;;;;20.70;54.90;;;;;;20856162;28;19929;-71
2022/06/22 02:37:07;;;;;;;;;;;20.70;54.90;;;;;;20887182;28;20498;-71
2022/06/22 02:47:14;;;;;;;;;;;20.60;54.90;;;;;;20870789;28;19920;-71
2022/06/22 02:57:17;;;;;;;;;;;20.60;54.90;;;;;;20869974;28;20367;-71
2022/06/22 03:07:18;;;;;;;;;;;20.60;54.90;;;;;;20886493;28;19927;-72
2022/06/22 03:17:19;;;;;;;;;;;20.60;54.90;;;;;;20894133;28;20023;-71
2022/06/22 03:27:20;;;;;;;;;;;20.60;54.90;;;;;;20885512;28;20580;-71
2022/06/22 03:37:24;;;;;;;;;;;20.60;55.00;;;;;;20868564;28;19921;-70
2022/06/22 03:47:27;;;;;;;;;;;20.60;54.90;;;;;;20867914;28;20023;-74
2022/06/22 03:57:29;;;;;;;;;;;20.60;55.00;;;;;;20882303;28;19928;-72
2022/06/22 04:07:31;;;;;;;;;;;20.60;54.90;;;;;;20898708;28;19935;-72
2022/06/22 04:17:36;;;;;;;;;;;20.50;54.90;;;;;;20863637;28;20306;-72
2022/06/22 04:27:41;;;;;;;;;;;20.60;55.00;;;;;;20865084;28;19958;-70
2022/06/22 04:37:42;;;;;;;;;;;20.50;54.90;;;;;;20864750;28;19947;-71
2022/06/22 04:47:43;;;;;;;;;;;20.50;54.90;;;;;;20863380;28;19917;-71
2022/06/22 04:57:44;;;;;;;;;;;20.50;54.90;;;;;;20879334;28;19921;-73
2022/06/22 05:07:47;;;;;;;;;;;20.50;54.90;;;;;;20846597;28;19913;-70
2022/06/22 05:17:48;;;;;;;;;;;20.50;54.90;;;;;;20878235;28;20325;-71
2022/06/22 05:27:52;;;;;;;;;;;20.60;55.00;;;;;;20880348;28;19917;-73
2022/06/22 05:37:52;;;;;;;;;;;20.60;54.90;;;;;;20892079;28;19971;-72
2022/06/22 05:47:53;;;;;;;;;;;20.60;54.90;;;;;;20874589;28;20003;-72
2022/06/22 05:57:59;;;;;;;;;;;20.60;55.00;;;;;;20857610;28;20055;-72
2022/06/22 06:08:02;;;;;;;;;;;20.60;54.90;;;;;;20870291;28;19920;-70
2022/06/22 06:18:03;;;;;;;;;;;20.70;55.00;;;;;;20851108;28;19929;-71
2022/06/22 06:28:04;;;;;;;;;;;20.70;55.00;;;;;;20855590;28;19913;-71
2022/06/22 06:38:11;;;;;;;;;;;20.80;55.10;;;;;;20870777;28;19965;-71
2022/06/22 06:48:15;;;;;;;;;;;20.80;55.10;;;;;;20903832;28;19913;-70
2022/06/22 06:58:18;;;;;;;;;;;20.80;55.10;;;;;;20886750;28;20272;-72
2022/06/22 07:08:20;;;;;;;;;;;20.80;55.00;;;;;;20869502;28;19913;-71
2022/06/22 07:18:22;;;;;;;;;;;20.90;55.00;;;;;;20869301;28;19921;-73
2022/06/22 07:28:27;;;;;;;;;;;20.90;55.00;;;;;;20885386;28;19952;-73
2022/06/22 07:38:45;;;;;;;;;;;20.90;55.00;;;;;;21184350;23;19937;-74
2022/06/22 07:48:46;;;;;;;;;;;20.90;55.00;;;;;;20728549;28;19913;-74
2022/06/22 07:58:52;;;;;;;;;;;21.00;55.00;;;;;;20725627;28;20035;-74
2022/06/22 08:09:01;;;;;;;;;;;21.00;55.00;;;;;;20737783;28;20304;-74
2022/06/22 08:19:03;;;;;;;;;;;21.00;55.00;;;;;;20733873;28;20339;-75
2022/06/22 08:29:18;;;;;;;;;;;21.00;54.90;;;;;;20734232;28;20008;-74
2022/06/22 08:39:52;;;;;;;;;;;21.10;54.90;;;;;;20737013;28;19929;-74
2022/06/22 08:50:11;;;;;;;;;;;21.10;54.90;;;;;;20753333;28;19914;-75
2022/06/22 09:00:24;;;;;;;;;;;21.10;54.90;;;;;;20760306;28;19925;-74
2022/06/22 09:10:44;;;;;;;;;;;21.10;54.90;;;;;;20712580;28;19914;-74
2022/06/22 09:21:04;;;;;;;;;;;21.10;54.90;;;;;;20751838;28;20265;-74
2022/06/22 09:31:10;;;;;;;;;;;21.10;54.80;;;;;;20716229;28;20458;-75
2022/06/22 09:41:34;;;;;;;;;;;21.10;54.80;;;;;;20744276;28;19925;-74
2022/06/22 09:51:56;;;;;;;;;;;21.10;54.80;;;;;;20751111;28;19972;-76
2022/06/22 10:02:21;;;;;;;;;;;21.10;54.70;;;;;;20726382;28;20285;-74
2022/06/22 10:12:53;;;;;;;;;;;21.10;54.70;;;;;;20743024;28;19921;-75
2022/06/22 10:23:12;;;;;;;;;;;21.10;54.60;;;;;;20750121;28;19921;-74
2022/06/22 10:33:36;;;;;;;;;;;21.10;54.60;;;;;;20713708;28;19957;-75
2022/06/22 10:54:23;;;;;;;;;;;21.10;54.30;;;;;;20727911;28;20261;-74
2022/06/22 11:04:58;;;;;;;;;;;21.10;54.20;;;;;;20738818;28;19928;-75
2022/06/22 11:15:16;;;;;;;;;;;21.10;53.90;;;;;;20740891;28;19914;-74
2022/06/22 11:36:44;;;;;;;;;;;21.10;53.80;;;;;;20732643;28;19917;-80
2022/06/22 11:46:49;;;;;;;;;;;21.10;53.70;;;;;;20757874;28;19964;-72
2022/06/22 11:56:52;;;;;;;;;;;21.10;53.50;;;;;;20732733;28;19949;-76
2022/06/22 12:07:12;;;;;;;;;;;21.10;53.60;;;;;;20752337;28;19917;-76
2022/06/22 12:17:35;;;;;;;;;;;21.20;53.70;;;;;;20733990;28;19967;-74
2022/06/22 12:27:39;;;;;;;;;;;21.20;53.70;;;;;;20742943;28;20009;-73
2022/06/22 12:38:00;;;;;;;;;;;21.20;53.70;;;;;;20740220;28;19925;-71
2022/06/22 12:48:11;;;;;;;;;;;21.20;53.70;;;;;;20759094;28;19913;-71
2022/06/22 12:58:14;;;;;;;;;;;21.30;53.70;;;;;;20732423;28;19975;-72
2022/06/22 13:08:16;;;;;;;;;;;21.30;53.70;;;;;;20727167;28;20399;-80
2022/06/22 13:18:24;;;;;;;;;;;21.40;53.60;;;;;;20732898;28;20391;-73
2022/06/22 13:28:43;;;;;;;;;;;21.40;53.60;;;;;;20730939;28;19967;-75
2022/06/22 13:38:47;;;;;;;;;;;21.50;53.60;;;;;;20748034;28;19928;-76
2022/06/22 13:48:53;;;;;;;;;;;21.50;53.60;;;;;;20735275;28;19948;-75
2022/06/22 13:58:54;;;;;;;;;;;21.60;53.50;;;;;;20711288;28;19925;-75
2022/06/22 14:09:07;;;;;;;;;;;21.70;53.50;;;;;;20688145;28;19920;-79
2022/06/22 14:19:18;;;;;;;;;;;21.80;53.40;;;;;;20700540;28;19921;-77
2022/06/22 14:29:30;;;;;;;;;;;21.90;53.30;;;;;;20695343;28;20066;-77
2022/06/22 14:45:17;;;;;;;;;;;22.10;53.20;;;;;;21062083;27;19916;-76
2022/06/22 14:55:27;;;;;;;;;;;22.30;52.60;;;;;;21062503;28;20407;-76
2022/06/22 15:05:28;;;;;;;;;;;22.40;52.30;;;;;;21048035;28;19920;-74
2022/06/22 15:15:31;;;;;;;;;;;22.50;52.00;;;;;;21041972;28;19919;-79
2022/06/22 15:25:34;;;;;;;;;;;22.60;51.70;;;;;;21035083;28;20005;-74
2022/06/22 15:35:35;;;;;;;;;;;22.70;51.40;;;;;;21056320;28;19920;-75
2022/06/22 15:45:38;;;;;;;;;;;22.80;51.40;;;;;;21104559;28;19997;-76
2022/06/22 15:55:38;;;;;;;;;;;22.80;51.30;;;;;;21089050;28;19920;-75
2022/06/22 16:05:41;;;;;;;;;;;22.80;51.30;;;;;;21080727;28;19912;-74
2022/06/22 16:15:54;;;;;;;;;;;22.90;51.40;;;;;;21084549;28;20540;-75
2022/06/22 16:26:13;;;;;;;;;;;22.90;51.40;;;;;;21061928;28;20486;-72
2022/06/22 16:36:32;;;;;;;;;;;23.00;51.30;;;;;;21058042;28;19928;-72
2022/06/22 16:46:39;;;;;;;;;;;23.10;51.40;;;;;;21052754;28;20397;-74
2022/06/22 16:56:41;;;;;;;;;;;23.00;51.40;;;;;;21060625;28;19982;-74
2022/06/22 17:06:44;;;;;;;;;;;23.10;51.50;;;;;;21025101;28;19936;-71
2022/06/22 17:16:49;;;;;;;;;;;23.20;51.50;;;;;;21058526;28;19944;-72
2022/06/22 17:27:02;;;;;;;;;;;23.20;51.50;;;;;;21035262;28;20241;-71
2022/06/22 17:37:21;;;;;;;;;;;23.20;51.50;;;;;;21044227;28;19933;-72
2022/06/22 17:47:26;;;;;;;;;;;23.20;51.50;;;;;;21063659;28;20423;-71
2022/06/22 17:57:28;;;;;;;;;;;23.20;51.50;;;;;;21063124;28;19920;-72
2022/06/22 18:07:30;;;;;;;;;;;23.20;51.50;;;;;;21007874;28;20823;-72
2022/06/22 18:17:31;;;;;;;;;;;23.20;51.50;;;;;;21035016;28;19973;-74
2022/06/22 18:27:42;;;;;;;;;;;23.10;51.60;;;;;;21018294;28;19912;-74
2022/06/22 18:38:01;;;;;;;;;;;23.10;51.80;;;;;;21039172;28;20019;-70
2022/06/22 18:48:12;;;;;;;;;;;22.90;51.90;;;;;;21066653;28;19912;-70
2022/06/22 18:58:17;;;;;;;;;;;22.90;52.20;;;;;;21031813;28;19923;-70
2022/06/22 19:08:19;;;;;;;;;;;22.80;52.30;;;;;;21034054;28;19916;-70
2022/06/22 19:18:35;;;;;;;;;;;22.70;52.40;;;;;;21017565;28;20017;-69
2022/06/22 19:28:47;;;;;;;;;;;22.70;52.60;;;;;;21060398;28;19919;-70
2022/06/22 19:38:49;;;;;;;;;;;22.60;52.70;;;;;;21048863;28;19971;-70
2022/06/22 19:49:01;;;;;;;;;;;22.60;52.90;;;;;;21020309;28;19999;-70
2022/06/22 19:59:02;;;;;;;;;;;22.60;52.90;;;;;;21030890;28;19920;-70
2022/06/22 20:09:05;;;;;;;;;;;22.50;53.00;;;;;;21029905;28;19922;-71
2022/06/22 20:19:06;;;;;;;;;;;22.50;53.00;;;;;;21045200;28;19923;-71
2022/06/22 20:29:16;;;;;;;;;;;22.50;53.10;;;;;;21044431;28;19935;-71
2022/06/22 20:39:16;;;;;;;;;;;22.40;53.10;;;;;;21061492;28;19920;-71
2022/06/22 20:49:18;;;;;;;;;;;22.40;53.10;;;;;;21016506;28;20378;-70
2022/06/22 20:59:24;;;;;;;;;;;22.40;53.10;;;;;;21043134;28;20297;-70
2022/06/22 21:09:46;;;;;;;;;;;22.40;53.10;;;;;;21041448;28;20002;-70
2022/06/22 21:19:49;;;;;;;;;;;22.40;53.20;;;;;;21029622;28;19920;-70
2022/06/22 21:29:52;;;;;;;;;;;22.40;53.20;;;;;;21056386;28;20259;-70
2022/06/22 21:39:58;;;;;;;;;;;22.30;53.20;;;;;;21032574;28;19924;-71
2022/06/22 21:50:06;;;;;;;;;;;22.30;53.20;;;;;;21021275;28;19919;-71
2022/06/22 22:00:10;;;;;;;;;;;22.30;53.30;;;;;;21035190;28;19978;-72
2022/06/22 22:10:10;;;;;;;;;;;22.30;53.40;;;;;;21074027;28;19913;-71
2022/06/22 22:20:13;;;;;;;;;;;22.30;53.50;;;;;;21020847;28;20373;-72
2022/06/22 22:30:13;;;;;;;;;;;22.30;53.50;;;;;;21019776;28;20300;-72
2022/06/22 22:40:34;;;;;;;;;;;22.30;53.70;;;;;;21052886;28;20016;-72
2022/06/22 22:50:35;;;;;;;;;;;22.30;53.80;;;;;;21050725;28;19916;-72
2022/06/22 23:00:36;;;;;;;;;;;22.20;53.80;;;;;;21040118;28;20365;-72
2022/06/22 23:10:37;;;;;;;;;;;22.20;53.80;;;;;;21034740;28;19920;-71
2022/06/22 23:20:40;;;;;;;;;;;22.20;53.90;;;;;;21050634;28;20628;-71
2022/06/22 23:30:40;;;;;;;;;;;22.20;54.00;;;;;;21032581;28;19912;-71
2022/06/22 23:40:44;;;;;;;;;;;22.20;54.10;;;;;;21048799;28;20294;-72
2022/06/22 23:50:50;;;;;;;;;;;22.20;54.20;;;;;;21031541;28;19969;-71
